^^
Your Local Weather - Clay, NY Station Historical Data
Daily Summary for May 11, 2017 Units:  English    Metric   Both
« Previous Day
Next Day »
Daily Weekly Monthly Yearly Custom
  High: Low: Average:
Temperature: 62.9 °F 35.0 °F 49.3 °F
Dew Point: 43.2 °F 32.0 °F 37.5 °F
Humidity: 92% 39% 67%
Wind Speed: 5.0mph 0.0mph 1.4mph
Wind Gust: 8.0mph - -
Wind- - South
Pressure: 30.06 in 29.91 in -
Precipitation: 0.00 in    
Historical Graphs
 
 
Tabular Data for May 11, 2017
Time Temperature Dew Point Pressure Wind Wind Speed Wind Gust Humidity Rainfall Rate (Hourly) solar
00:00 37.7 °F 32.4 °F 30.06 in Calm     81% 0.00 in 0 W/m2
00:06 37.6 °F 32.3 °F 30.06 in Calm     81% 0.00 in 0 W/m2
00:12 37.4 °F 32.4 °F 30.06 in Calm     82% 0.00 in 0 W/m2
00:18 37.2 °F 32.2 °F 30.06 in Calm     82% 0.00 in 0 W/m2
00:24 37.0 °F 32.0 °F 30.06 in Calm     82% 0.00 in 0 W/m2
00:30 36.9 °F 32.2 °F 30.06 in Calm     83% 0.00 in 0 W/m2
00:36 36.9 °F 32.5 °F 30.06 in Calm     84% 0.00 in 0 W/m2
00:42 36.8 °F 32.4 °F 30.06 in Calm     84% 0.00 in 0 W/m2
00:48 36.8 °F 32.7 °F 30.06 in Calm     85% 0.00 in 0 W/m2
00:54 36.8 °F 32.4 °F 30.06 in Calm     84% 0.00 in 0 W/m2
01:00 36.8 °F 32.7 °F 30.06 in Calm     85% 0.00 in 0 W/m2
01:06 36.8 °F 32.7 °F 30.06 in Calm     85% 0.00 in 0 W/m2
01:12 36.7 °F 32.6 °F 30.06 in Calm     85% 0.00 in 0 W/m2
01:18 36.7 °F 32.9 °F 30.05 in Calm     86% 0.00 in 0 W/m2
01:24 36.8 °F 33.0 °F 30.05 in Calm     86% 0.00 in 0 W/m2
01:30 36.7 °F 32.9 °F 30.05 in Calm     86% 0.00 in 0 W/m2
01:36 36.6 °F 33.1 °F 30.05 in Calm     87% 0.00 in 0 W/m2
01:42 36.5 °F 33.0 °F 30.04 in Calm     87% 0.00 in 0 W/m2
01:48 36.5 °F 33.0 °F 30.04 in Calm     87% 0.00 in 0 W/m2
01:54 36.6 °F 33.4 °F 30.03 in Calm     88% 0.00 in 0 W/m2
02:00 36.5 °F 33.3 °F 30.03 in Calm     88% 0.00 in 0 W/m2
02:06 36.5 °F 33.3 °F 30.04 in Calm     88% 0.00 in 0 W/m2
02:12 36.3 °F 33.1 °F 30.03 in Calm     88% 0.00 in 0 W/m2
02:18 36.2 °F 33.0 °F 30.03 in Calm     88% 0.00 in 0 W/m2
02:24 36.1 °F 32.9 °F 30.03 in Calm     88% 0.00 in 0 W/m2
02:30 35.9 °F 32.7 °F 30.03 in Calm     88% 0.00 in 0 W/m2
02:36 35.8 °F 32.6 °F 30.03 in Calm     88% 0.00 in 0 W/m2
02:42 35.7 °F 32.5 °F 30.02 in Calm     88% 0.00 in 0 W/m2
02:48 35.6 °F 32.7 °F 30.02 in Calm     89% 0.00 in 0 W/m2
02:54 35.6 °F 32.7 °F 30.01 in Calm     89% 0.00 in 0 W/m2
03:00 35.5 °F 32.6 °F 30.01 in Calm     89% 0.00 in 0 W/m2
03:06 35.4 °F 32.5 °F 30.01 in Calm     89% 0.00 in 0 W/m2
03:12 35.2 °F 32.3 °F 30.02 in Calm     89% 0.00 in 0 W/m2
03:18 35.1 °F 32.2 °F 30.02 in Calm     89% 0.00 in 0 W/m2
03:24 35.2 °F 32.3 °F 30.02 in Calm     89% 0.00 in 0 W/m2
03:30 35.2 °F 32.6 °F 30.02 in Calm     90% 0.00 in 0 W/m2
03:36 35.3 °F 32.7 °F 30.02 in Calm     90% 0.00 in 0 W/m2
03:42 35.5 °F 32.9 °F 30.01 in Calm     90% 0.00 in 0 W/m2
03:48 35.5 °F 32.9 °F 30.02 in Calm     90% 0.00 in 0 W/m2
03:54 35.6 °F 33.0 °F 30.02 in Calm     90% 0.00 in 0 W/m2
04:00 35.5 °F 32.9 °F 30.02 in Calm     90% 0.00 in 0 W/m2
04:06 35.5 °F 32.9 °F 30.02 in Calm     90% 0.00 in 0 W/m2
04:12 35.7 °F 33.1 °F 30.03 in Calm     90% 0.00 in 0 W/m2
04:18 35.8 °F 33.2 °F 30.03 in Calm     90% 0.00 in 0 W/m2
04:24 35.8 °F 33.4 °F 30.03 in Calm     91% 0.00 in 0 W/m2
04:30 35.7 °F 33.3 °F 30.03 in Calm     91% 0.00 in 0 W/m2
04:36 35.7 °F 33.3 °F 30.03 in Calm     91% 0.00 in 0 W/m2
04:42 35.5 °F 33.1 °F 30.03 in Calm     91% 0.00 in 0 W/m2
04:48 35.5 °F 33.1 °F 30.03 in Calm     91% 0.00 in 0 W/m2
04:54 35.4 °F 33.0 °F 30.03 in Calm     91% 0.00 in 0 W/m2
05:00 35.3 °F 32.9 °F 30.03 in Calm     91% 0.00 in 0 W/m2
05:06 35.3 °F 32.9 °F 30.03 in Calm     91% 0.00 in 0 W/m2
05:12 35.2 °F 32.8 °F 30.04 in Calm     91% 0.00 in 0 W/m2
05:18 35.2 °F 32.8 °F 30.03 in Calm     91% 0.00 in 0 W/m2
05:24 35.2 °F 32.8 °F 30.03 in Calm     91% 0.00 in 0 W/m2
05:30 35.0 °F 32.6 °F 30.03 in Calm     91% 0.00 in 0 W/m2
05:36 35.0 °F 32.6 °F 30.03 in Calm     91% 0.00 in 5 W/m2
05:42 35.0 °F 32.6 °F 30.03 in Calm     91% 0.00 in 7 W/m2
05:48 35.0 °F 32.6 °F 30.03 in Calm     91% 0.00 in 7 W/m2
05:56 35.2 °F 32.8 °F 30.03 in Calm     91% 0.00 in 9 W/m2
06:02 35.4 °F 33.3 °F 30.02 in Calm     92% 0.00 in 12 W/m2
06:08 35.6 °F 33.5 °F 30.02 in Calm     92% 0.00 in 18 W/m2
06:14 35.7 °F 33.6 °F 30.02 in Calm     92% 0.00 in 23 W/m2
06:20 35.9 °F 33.8 °F 30.01 in Calm     92% 0.00 in 30 W/m2
06:26 36.2 °F 34.1 °F 30.02 in Calm     92% 0.00 in 39 W/m2
06:32 36.5 °F 34.4 °F 30.02 in Calm     92% 0.00 in 70 W/m2
06:38 36.9 °F 34.8 °F 30.02 in Calm     92% 0.00 in 79 W/m2
06:44 37.1 °F 35.0 °F 30.01 in Calm     92% 0.00 in 58 W/m2
06:50 37.4 °F 35.3 °F 30.02 in Calm     92% 0.00 in 79 W/m2
06:56 37.9 °F 35.8 °F 30.02 in Calm     92% 0.00 in 81 W/m2
07:02 38.4 °F 36.3 °F 30.02 in Calm     92% 0.00 in 86 W/m2
07:08 38.7 °F 36.6 °F 30.02 in Calm     92% 0.00 in 102 W/m2
07:14 39.2 °F 37.1 °F 30.01 in Calm   2.0 mph 92% 0.00 in 127 W/m2
07:20 39.6 °F 37.2 °F 30.01 in ENE 1.0 mph 1.0 mph 91% 0.00 in 123 W/m2
07:26 40.0 °F 37.3 °F 30.01 in ENE 1.0 mph 1.0 mph 90% 0.00 in 130 W/m2
07:32 40.5 °F 37.2 °F 30.01 in Calm   1.0 mph 88% 0.00 in 169 W/m2
07:38 41.3 °F 37.7 °F 30.01 in ENE 1.0 mph 1.0 mph 87% 0.00 in 223 W/m2
07:44 42.0 °F 37.5 °F 30.01 in NE 1.0 mph 2.0 mph 84% 0.00 in 253 W/m2
07:50 42.9 °F 37.5 °F 30.01 in ENE 1.0 mph 1.0 mph 81% 0.00 in 330 W/m2
07:56 43.6 °F 37.2 °F 30.01 in East 1.0 mph 2.0 mph 78% 0.00 in 225 W/m2
08:02 44.1 °F 37.0 °F 30.01 in ENE 2.0 mph 3.0 mph 76% 0.00 in 265 W/m2
08:08 45.1 °F 37.6 °F 30.01 in ENE 1.0 mph 3.0 mph 75% 0.00 in 401 W/m2
08:14 45.7 °F 37.5 °F 30.01 in ENE 1.0 mph 3.0 mph 73% 0.00 in 265 W/m2
08:20 46.0 °F 36.8 °F 30.01 in ENE 1.0 mph 1.0 mph 70% 0.00 in 302 W/m2
08:26 46.2 °F 37.0 °F 30.01 in ENE 2.0 mph 4.0 mph 70% 0.00 in 355 W/m2
08:32 46.7 °F 37.1 °F 30.01 in ENE 2.0 mph 2.0 mph 69% 0.00 in 411 W/m2
08:38 47.2 °F 36.4 °F 30.01 in NE 2.0 mph 4.0 mph 66% 0.00 in 438 W/m2
08:44 47.7 °F 37.3 °F 30.01 in ESE 2.0 mph 3.0 mph 67% 0.00 in 380 W/m2
08:50 48.2 °F 36.6 °F 30.01 in East 1.0 mph 1.0 mph 64% 0.00 in 411 W/m2
08:56 48.7 °F 37.5 °F 30.01 in SE 2.0 mph 4.0 mph 65% 0.00 in 508 W/m2
09:02 48.9 °F 38.0 °F 30.01 in SE 3.0 mph 3.0 mph 66% 0.00 in 392 W/m2
09:08 49.4 °F 37.3 °F 30.00 in East 2.0 mph 3.0 mph 63% 0.00 in 464 W/m2
09:14 49.9 °F 38.6 °F 30.00 in East 1.0 mph 2.0 mph 65% 0.00 in 480 W/m2
09:20 50.6 °F 37.6 °F 30.00 in ENE 2.0 mph 4.0 mph 61% 0.00 in 399 W/m2
09:26 50.9 °F 38.3 °F 30.00 in NE 2.0 mph 4.0 mph 62% 0.00 in 415 W/m2
09:32 51.4 °F 37.5 °F 30.00 in ENE 2.0 mph 4.0 mph 59% 0.00 in 645 W/m2
09:38 51.4 °F 37.5 °F 30.01 in East 3.0 mph 5.0 mph 59% 0.00 in 642 W/m2
09:44 52.1 °F 38.2 °F 30.01 in ESE 2.0 mph 3.0 mph 59% 0.00 in 601 W/m2
09:50 52.9 °F 37.6 °F 30.01 in ENE 2.0 mph 2.0 mph 56% 0.00 in 617 W/m2
09:56 53.0 °F 39.0 °F 30.01 in ESE 3.0 mph 3.0 mph 59% 0.00 in 675 W/m2
10:02 53.7 °F 37.4 °F 30.00 in ENE 2.0 mph 3.0 mph 54% 0.00 in 714 W/m2
10:08 53.8 °F 37.1 °F 30.00 in East 3.0 mph 3.0 mph 53% 0.00 in 663 W/m2
10:14 53.9 °F 37.6 °F 30.00 in East 3.0 mph 6.0 mph 54% 0.00 in 580 W/m2
10:19 54.5 °F 38.2 °F 30.00 in East 3.0 mph 8.0 mph 54% 0.00 in 557 W/m2
10:26 54.2 °F 37.4 °F 29.99 in East 3.0 mph 8.0 mph 53% 0.00 in 624 W/m2
10:32 55.0 °F 36.7 °F 29.98 in NNE 3.0 mph 3.0 mph 50% 0.00 in 737 W/m2
10:38 55.4 °F 37.6 °F 29.98 in SE 3.0 mph 4.0 mph 51% 0.00 in 649 W/m2
10:44 55.1 °F 36.3 °F 29.99 in SE 4.0 mph 6.0 mph 49% 0.00 in 661 W/m2
10:50 55.1 °F 36.3 °F 29.99 in SSE 3.0 mph 3.0 mph 49% 0.00 in 696 W/m2
10:55 55.3 °F 35.4 °F 29.99 in ENE 3.0 mph 5.0 mph 47% 0.00 in 747 W/m2
11:02 56.3 °F 35.8 °F 29.98 in ESE 3.0 mph 3.0 mph 46% 0.00 in 921 W/m2
11:08 56.6 °F 34.3 °F 29.98 in East 4.0 mph 6.0 mph 43% 0.00 in 740 W/m2
11:14 56.8 °F 36.8 °F 29.98 in NNE 4.0 mph 5.0 mph 47% 0.00 in 519 W/m2
11:20 56.1 °F 35.6 °F 29.98 in NE 3.0 mph 5.0 mph 46% 0.00 in 515 W/m2
11:26 56.5 °F 34.3 °F 29.97 in ESE 3.0 mph 5.0 mph 43% 0.00 in 740 W/m2
11:32 57.1 °F 35.4 °F 29.96 in East 2.0 mph 3.0 mph 44% 0.00 in 923 W/m2
11:38 56.9 °F 34.6 °F 29.96 in ESE 2.0 mph 3.0 mph 43% 0.00 in 338 W/m2
11:44 56.9 °F 34.6 °F 29.95 in ENE 2.0 mph 2.0 mph 43% 0.00 in 489 W/m2
11:50 57.5 °F 37.4 °F 29.95 in East 2.0 mph 5.0 mph 47% 0.00 in 872 W/m2
11:56 57.5 °F 34.6 °F 29.95 in NE 4.0 mph 5.0 mph 42% 0.00 in 701 W/m2
12:02 57.5 °F 37.4 °F 29.95 in NE 3.0 mph 5.0 mph 47% 0.00 in 940 W/m2
12:04 57.3 °F 35.0 °F 29.95 in ENE 3.0 mph 5.0 mph 43% 0.00 in 940 W/m2
12:10 57.4 °F 36.2 °F 29.95 in SSW 3.0 mph 4.0 mph 45% 0.00 in 1023 W/m2
12:16 57.7 °F 35.9 °F 29.95 in East 3.0 mph 5.0 mph 44% 0.00 in 837 W/m2
12:22 58.2 °F 35.8 °F 29.95 in North 4.0 mph 4.0 mph 43% 0.00 in 942 W/m2
12:28 59.2 °F 39.5 °F 29.95 in NNE 4.0 mph 7.0 mph 48% 0.00 in 998 W/m2
12:34 58.7 °F 37.4 °F 29.95 in NNW 4.0 mph 7.0 mph 45% 0.00 in 1005 W/m2
12:40 58.8 °F 38.1 °F 29.95 in SSE 3.0 mph 4.0 mph 46% 0.00 in 1034 W/m2
12:46 58.8 °F 37.5 °F 29.94 in NE 3.0 mph 4.0 mph 45% 0.00 in 1071 W/m2
12:52 59.6 °F 37.1 °F 29.94 in NNE 1.0 mph 2.0 mph 43% 0.00 in 1046 W/m2
12:58 59.7 °F 38.9 °F 29.94 in SSE 2.0 mph 4.0 mph 46% 0.00 in 573 W/m2
13:04 59.4 °F 36.9 °F 29.94 in East 3.0 mph 5.0 mph 43% 0.00 in 504 W/m2
13:10 59.0 °F 36.5 °F 29.94 in ENE 3.0 mph 3.0 mph 43% 0.00 in 1169 W/m2
13:16 58.8 °F 36.9 °F 29.93 in SW 3.0 mph 4.0 mph 44% 0.00 in 439 W/m2
13:22 59.9 °F 39.6 °F 29.93 in SSE 2.0 mph 7.0 mph 47% 0.00 in 510 W/m2
13:28 59.8 °F 37.8 °F 29.93 in NE 3.0 mph 7.0 mph 44% 0.00 in 510 W/m2
13:34 60.0 °F 38.0 °F 29.93 in East 3.0 mph 8.0 mph 44% 0.00 in 1005 W/m2
13:40 60.3 °F 37.1 °F 29.93 in East 4.0 mph 4.0 mph 42% 0.00 in 1005 W/m2
13:46 59.6 °F 37.1 °F 29.93 in South 4.0 mph 5.0 mph 43% 0.00 in 454 W/m2
13:52 59.6 °F 36.5 °F 29.92 in SSE 2.0 mph 3.0 mph 42% 0.00 in 721 W/m2
13:58 61.1 °F 40.1 °F 29.92 in SSE 1.0 mph 3.0 mph 46% 0.00 in 455 W/m2
14:04 61.1 °F 37.8 °F 29.92 in ENE 3.0 mph 7.0 mph 42% 0.00 in 1245 W/m2
14:10 60.8 °F 35.7 °F 29.92 in SE 4.0 mph 4.0 mph 39% 0.00 in 970 W/m2
14:16 61.0 °F 35.8 °F 29.92 in East 3.0 mph 6.0 mph 39% 0.00 in 970 W/m2
14:22 61.0 °F 40.1 °F 29.92 in ESE 3.0 mph 4.0 mph 46% 0.00 in 446 W/m2
14:28 60.3 °F 36.5 °F 29.92 in South 2.0 mph 4.0 mph 41% 0.00 in 403 W/m2
14:34 61.6 °F 37.7 °F 29.92 in ENE 2.0 mph 7.0 mph 41% 0.00 in 817 W/m2
14:40 60.9 °F 38.8 °F 29.91 in North 4.0 mph 4.0 mph 44% 0.00 in 496 W/m2
14:46 61.5 °F 38.8 °F 29.92 in NNE 4.0 mph 4.0 mph 43% 0.00 in 837 W/m2
14:52 61.6 °F 37.7 °F 29.92 in East 3.0 mph 3.0 mph 41% 0.00 in 559 W/m2
14:58 61.1 °F 35.9 °F 29.92 in ENE 2.0 mph 5.0 mph 39% 0.00 in 450 W/m2
15:04 60.8 °F 36.3 °F 29.92 in NE 2.0 mph 4.0 mph 40% 0.00 in 390 W/m2
15:10 61.3 °F 36.8 °F 29.92 in NE 3.0 mph 3.0 mph 40% 0.00 in 700 W/m2
15:16 61.4 °F 37.5 °F 29.92 in NW 3.0 mph 3.0 mph 41% 0.00 in 652 W/m2
15:22 61.3 °F 38.0 °F 29.92 in WNW 2.0 mph 3.0 mph 42% 0.00 in 552 W/m2
15:28 61.6 °F 38.3 °F 29.92 in NNE 2.0 mph 4.0 mph 42% 0.00 in 455 W/m2
15:34 62.1 °F 38.7 °F 29.92 in North 2.0 mph 3.0 mph 42% 0.00 in 550 W/m2
15:40 62.3 °F 38.3 °F 29.92 in NNE 2.0 mph 2.0 mph 41% 0.00 in 373 W/m2
15:46 61.5 °F 36.9 °F 29.92 in NW 2.0 mph 5.0 mph 40% 0.00 in 283 W/m2
15:52 61.5 °F 39.4 °F 29.92 in ESE 3.0 mph 3.0 mph 44% 0.00 in 253 W/m2
15:58 61.4 °F 38.1 °F 29.92 in East 1.0 mph 4.0 mph 42% 0.00 in 218 W/m2
16:04 61.1 °F 36.6 °F 29.92 in East 2.0 mph 3.0 mph 40% 0.00 in 239 W/m2
16:10 60.8 °F 36.9 °F 29.92 in East 2.0 mph 2.0 mph 41% 0.00 in 251 W/m2
16:16 60.9 °F 35.8 °F 29.92 in East 1.0 mph 2.0 mph 39% 0.00 in 313 W/m2
16:22 61.6 °F 37.0 °F 29.92 in Calm   1.0 mph 40% 0.00 in 316 W/m2
16:28 62.9 °F 39.4 °F 29.91 in NW 1.0 mph 2.0 mph 42% 0.00 in 566 W/m2
16:34 62.5 °F 38.5 °F 29.92 in NW 1.0 mph 1.0 mph 41% 0.00 in 227 W/m2
16:40 62.1 °F 38.7 °F 29.91 in West 1.0 mph 2.0 mph 42% 0.00 in 218 W/m2
16:46 61.5 °F 37.6 °F 29.91 in West 1.0 mph 2.0 mph 41% 0.00 in 221 W/m2
16:52 61.5 °F 39.4 °F 29.91 in WNW 1.0 mph 1.0 mph 44% 0.00 in 297 W/m2
16:58 61.5 °F 36.9 °F 29.91 in West 1.0 mph 1.0 mph 40% 0.00 in 241 W/m2
17:04 61.4 °F 40.4 °F 29.91 in WNW 1.0 mph 6.0 mph 46% 0.00 in 227 W/m2
17:10 59.5 °F 40.8 °F 29.91 in NNW 4.0 mph 4.0 mph 50% 0.00 in 223 W/m2
17:16 58.7 °F 41.1 °F 29.91 in NW 5.0 mph 5.0 mph 52% 0.00 in 232 W/m2
17:22 58.7 °F 42.6 °F 29.91 in NW 4.0 mph 5.0 mph 55% 0.00 in 262 W/m2
17:28 58.9 °F 41.8 °F 29.91 in NNW 4.0 mph 6.0 mph 53% 0.00 in 185 W/m2
17:34 58.8 °F 41.7 °F 29.91 in NNE 4.0 mph 5.0 mph 53% 0.00 in 142 W/m2
17:40 58.6 °F 41.5 °F 29.91 in NNW 5.0 mph 5.0 mph 53% 0.00 in 134 W/m2
17:45 58.2 °F 41.6 °F 29.91 in NW 5.0 mph 7.0 mph 54% 0.00 in 123 W/m2
17:52 57.8 °F 41.3 °F 29.91 in NW 5.0 mph 5.0 mph 54% 0.00 in 148 W/m2
17:58 57.8 °F 42.2 °F 29.91 in NNW 4.0 mph 5.0 mph 56% 0.00 in 171 W/m2
18:04 58.0 °F 41.9 °F 29.92 in NNW 3.0 mph 6.0 mph 55% 0.00 in 151 W/m2
18:10 58.0 °F 42.8 °F 29.92 in North 3.0 mph 3.0 mph 57% 0.00 in 135 W/m2
18:16 57.7 °F 42.6 °F 29.92 in WNW 4.0 mph 6.0 mph 57% 0.00 in 121 W/m2
18:22 57.5 °F 42.4 °F 29.92 in NNW 4.0 mph 6.0 mph 57% 0.00 in 107 W/m2
18:28 57.4 °F 42.7 °F 29.92 in NW 3.0 mph 6.0 mph 58% 0.00 in 88 W/m2
18:34 57.2 °F 42.5 °F 29.91 in NNW 2.0 mph 5.0 mph 58% 0.00 in 74 W/m2
18:40 57.0 °F 42.8 °F 29.91 in NW 3.0 mph 4.0 mph 59% 0.00 in 65 W/m2
18:46 56.8 °F 42.2 °F 29.91 in North 3.0 mph 4.0 mph 58% 0.00 in 67 W/m2
18:52 56.8 °F 42.6 °F 29.91 in NNW 3.0 mph 4.0 mph 59% 0.00 in 65 W/m2
18:58 56.7 °F 43.0 °F 29.91 in NW 3.0 mph 5.0 mph 60% 0.00 in 63 W/m2
19:04 56.6 °F 42.4 °F 29.92 in WNW 3.0 mph 5.0 mph 59% 0.00 in 62 W/m2
19:10 56.5 °F 42.8 °F 29.92 in NNW 3.0 mph 4.0 mph 60% 0.00 in 60 W/m2
19:16 56.4 °F 42.7 °F 29.92 in North 3.0 mph 7.0 mph 60% 0.00 in 56 W/m2
19:22 56.4 °F 42.7 °F 29.92 in WNW 3.0 mph 4.0 mph 60% 0.00 in 54 W/m2
19:28 56.5 °F 43.2 °F 29.92 in NNW 3.0 mph 4.0 mph 61% 0.00 in 47 W/m2
19:34 56.2 °F 42.5 °F 29.92 in WNW 3.0 mph 4.0 mph 60% 0.00 in 37 W/m2
19:40 55.9 °F 42.2 °F 29.92 in North 3.0 mph 3.0 mph 60% 0.00 in 30 W/m2
19:46 55.7 °F 42.5 °F 29.92 in NNW 2.0 mph 3.0 mph 61% 0.00 in 23 W/m2
19:52 55.4 °F 42.2 °F 29.93 in WNW 2.0 mph 2.0 mph 61% 0.00 in 18 W/m2
19:58 55.2 °F 42.4 °F 29.93 in North 2.0 mph 7.0 mph 62% 0.00 in 16 W/m2
20:04 55.0 °F 42.6 °F 29.92 in NNW 3.0 mph 4.0 mph 63% 0.00 in 14 W/m2
20:09 54.8 °F 42.4 °F 29.92 in NW 2.0 mph 5.0 mph 63% 0.00 in 9 W/m2
20:16 54.6 °F 42.3 °F 29.93 in NNW 2.0 mph 5.0 mph 63% 0.00 in 5 W/m2
20:22 54.4 °F 42.5 °F 29.93 in NW 2.0 mph 3.0 mph 64% 0.00 in 5 W/m2
20:28 54.2 °F 42.7 °F 29.93 in NNW 1.0 mph 3.0 mph 65% 0.00 in 0 W/m2
20:32 54.0 °F 42.5 °F 29.93 in NNW 1.0 mph 2.0 mph 65% 0.00 in 0 W/m2
20:38 53.7 °F 42.6 °F 29.93 in WNW 1.0 mph 3.0 mph 66% 0.00 in 0 W/m2
20:44 53.6 °F 42.5 °F 29.93 in WNW 1.0 mph 3.0 mph 66% 0.00 in 0 W/m2
20:50 53.3 °F 42.6 °F 29.93 in WNW 1.0 mph 1.0 mph 67% 0.00 in 0 W/m2
20:56 53.1 °F 42.4 °F 29.93 in WNW 1.0 mph 2.0 mph 67% 0.00 in 0 W/m2
21:02 53.0 °F 42.7 °F 29.94 in WNW 1.0 mph 1.0 mph 68% 0.00 in 0 W/m2
21:08 52.9 °F 42.6 °F 29.94 in WNW 1.0 mph 2.0 mph 68% 0.00 in 0 W/m2
21:14 52.7 °F 42.4 °F 29.93 in WNW 1.0 mph 3.0 mph 68% 0.00 in 0 W/m2
21:20 52.6 °F 42.7 °F 29.94 in WNW 1.0 mph 1.0 mph 69% 0.00 in 0 W/m2
21:26 52.4 °F 42.5 °F 29.94 in WNW 1.0 mph 2.0 mph 69% 0.00 in 0 W/m2
21:32 52.3 °F 42.8 °F 29.94 in North 1.0 mph 2.0 mph 70% 0.00 in 0 W/m2
21:38 52.1 °F 42.6 °F 29.94 in North 1.0 mph 2.0 mph 70% 0.00 in 0 W/m2
21:44 51.9 °F 42.8 °F 29.95 in Calm   2.0 mph 71% 0.00 in 0 W/m2
21:50 51.7 °F 42.6 °F 29.95 in Calm     71% 0.00 in 0 W/m2
21:56 51.5 °F 42.4 °F 29.95 in Calm     71% 0.00 in 0 W/m2
22:02 51.2 °F 42.5 °F 29.95 in Calm     72% 0.00 in 0 W/m2
22:08 51.0 °F 42.3 °F 29.96 in Calm     72% 0.00 in 0 W/m2
22:14 50.8 °F 42.5 °F 29.96 in Calm     73% 0.00 in 0 W/m2
22:20 50.6 °F 42.3 °F 29.96 in Calm     73% 0.00 in 0 W/m2
22:26 50.5 °F 42.5 °F 29.96 in Calm     74% 0.00 in 0 W/m2
22:32 50.2 °F 42.2 °F 29.96 in Calm   1.0 mph 74% 0.00 in 0 W/m2
22:38 50.0 °F 42.4 °F 29.96 in Calm   1.0 mph 75% 0.00 in 0 W/m2
22:44 49.8 °F 42.5 °F 29.96 in Calm     76% 0.00 in 0 W/m2
22:50 49.6 °F 42.3 °F 29.96 in Calm     76% 0.00 in 0 W/m2
22:55 49.4 °F 42.5 °F 29.96 in Calm     77% 0.00 in 0 W/m2
23:02 49.0 °F 42.1 °F 29.96 in Calm     77% 0.00 in 0 W/m2
23:08 48.8 °F 42.2 °F 29.96 in Calm     78% 0.00 in 0 W/m2
23:14 48.5 °F 42.0 °F 29.95 in Calm     78% 0.00 in 0 W/m2
23:20 48.3 °F 42.1 °F 29.95 in Calm     79% 0.00 in 0 W/m2
23:26 48.0 °F 42.1 °F 29.95 in Calm     80% 0.00 in 0 W/m2
23:32 47.8 °F 41.9 °F 29.95 in Calm     80% 0.00 in 0 W/m2
23:38 47.6 °F 41.7 °F 29.95 in Calm     80% 0.00 in 0 W/m2
23:44 47.4 °F 41.9 °F 29.95 in Calm     81% 0.00 in 0 W/m2
23:50 47.1 °F 41.9 °F 29.95 in Calm     82% 0.00 in 0 W/m2
23:56 46.6 °F 41.4 °F 29.95 in Calm   2.0 mph 82% 0.00 in 0 W/m2
Country Meadow, Clay, NY, USA
Compliments of Weather Underground - 2 mb